Flight Track Log - Related Links

Times and Time Zones

All times are in EDT time to prevent confusion due to time zone crossing. See the CTL78 flight status page for this flight to view local times or setup timezone preferences in your user account.

Time Position Orientation Groundspeed Altitude Reporting Facility
EDT Latitude Longitude Course Direction KTS MPH feet Rate Location/Type
Fri 09:55:26 PM 41.9664 -83.3367 115° Southeast 161 185 4,000  Level Cleveland Center
Fri 09:56:33 PM 41.9469 -83.2800 115° Southeast 161 185 4,100 43 Climbing Cleveland Center
Fri 09:57:46 PM 41.9319 -83.2097 106° East 157 181 4,100 47 Level Cleveland Center
Fri 09:58:40 PM 41.9186 -83.1589 109° East 158 182 4,200 331 Climbing Cleveland Center
Fri 09:59:53 PM 41.9011 -83.0939 110° East 146 168 4,800 385 Climbing Cleveland Center
Fri 10:00:29 PM 41.8975 -83.0744 104° East 147 169 4,900 -58 Climbing Cleveland Center
Fri 10:02:00 PM 41.9359 -83.0915 342° North  Level Estimated
Fri 10:09:00 PM 42.1129 -83.1706 342° North  Level Estimated
Fri 10:10:00 PM 42.1382 -83.1819 342° North  Level Estimated
Fri 10:11:00 PM 42.1635 -83.1933 342° North  Level Estimated
Fri 10:12:00 PM 42.1887 -83.2046 342° North  Level Estimated
Fri 10:13:00 PM 42.2140 -83.2160 342° North  Level Estimated
Fri 10:14:00 PM 42.2393 -83.2273 342° North  Level Estimated
Fri 10:15:00 PM 42.2646 -83.2387 342° North  Level Estimated
Fri 10:16:00 PM 42.2899 -83.2501 342° North  Level Estimated
Fri 10:17:00 PM 42.3151 -83.2615 342° North  Level Estimated
Fri 10:18:00 PM 42.3404 -83.2729 342° North  Level Estimated
Fri 10:19:00 PM 42.3657 -83.2843 342° North  Level Estimated
Fri 10:20:00 PM 42.3910 -83.2957 342° North  Level Estimated
Fri 10:21:00 PM 42.4162 -83.3072 342° North  Level Estimated
Fri 10:22:00 PM 42.4415 -83.3186 342° North  Level Estimated
Fri 10:23:00 PM 42.4668 -83.3300 342° North  Level Estimated
Fri 10:24:00 PM 42.4921 -83.3415 342° North  Level Estimated
Fri 10:25:00 PM 42.5173 -83.3530 342° North  Level Estimated
Fri 10:26:00 PM 42.5426 -83.3645 341° North  Level Estimated
Fri 10:27:00 PM 42.5679 -83.3760 341° North  Level Estimated
Fri 10:28:00 PM 42.5931 -83.3875 341° North  Level Estimated
Fri 10:29:00 PM 42.6184 -83.3990 341° North  Level Estimated
Fri 10:30:00 PM 42.6437 -83.4105 341° North  Level Estimated
Fri 10:31:00 PM 42.6656 -83.4205 341° North  Level Estimated
Fri 10:32:00 PM 42.6656 -83.4205 140° Southeast  Level Estimated
Fri 10:33:00 PM 42.6656 -83.4205 140° Southeast  Level Estimated
Fri 10:34:00 PM 42.6656 -83.4205 140° Southeast  Level Estimated
Fri 10:35:00 PM 42.6656 -83.4205 140° Southeast  Level Estimated
Fri 10:36:00 PM 42.6656 -83.4205 140° Southeast  Level Estimated
Fri 10:37:00 PM 42.6656 -83.4205 140° Southeast  Level Estimated
Fri 10:38:00 PM 42.6656 -83.4205 140° Southeast  Level Estimated
Fri 10:39:00 PM 42.6656 -83.4205 140° Southeast  Level Estimated
Fri 10:40:00 PM 42.6656 -83.4205 140° Southeast  Level Estimated
Fri 10:41:00 PM 42.6656 -83.4205 140° Southeast  Level Estimated
Fri 10:42:00 PM 42.6656 -83.4205 140° Southeast  Level Estimated
Fri 10:43:00 PM 42.6656 -83.4205 140° Southeast  Level Estimated
Fri 10:44:00 PM 42.6656 -83.4205 140° Southeast  Level Estimated
Fri 10:45:00 PM 42.6656 -83.4205 140° Southeast  Level Estimated
Fri 10:46:00 PM 42.6656 -83.4205 140° Southeast  Level Estimated
Fri 10:46:15 PM 41.5833 -81.6992 339° North 156 180 2,100  Level Cleveland Center
Fri 10:47:00 PM 42.6656 -83.4205 140° Southeast  Level Estimated
Fri 10:47:16 PM 41.6122 -81.7469 309° West 176 203 2,800  Level Cleveland Center
Fri 10:48:00 PM 42.6656 -83.4205 140° Southeast  Level Estimated
Fri 10:48:22 PM 41.6303 -81.8139 290° West 178 205 3,300  Level Cleveland Center
Fri 10:49:00 PM 42.6656 -83.4205 140° Southeast  Level Estimated
Fri 10:49:23 PM 41.6461 -81.8753 289° West 174 200 3,800  Level Cleveland Center
Fri 10:50:00 PM 42.6656 -83.4205 140° Southeast  Level Estimated
Fri 10:50:30 PM 41.6642 -81.9450 289° West 179 206 4,200  Level Cleveland Center
Fri 10:51:30 PM 41.6822 -82.0067 291° West 173 199 4,700 470 Climbing Cleveland Center
Fri 10:52:25 PM 41.7003 -82.0569 296° West 173 199 5,100 397 Climbing Cleveland Center
Fri 10:53:31 PM 41.7183 -82.1242 290° West 175 201 5,500 425 Climbing Cleveland Center
Fri 10:54:32 PM 41.7361 -82.1858 291° West 174 200 6,000 310 Climbing Cleveland Center
Fri 10:55:27 PM 41.7519 -82.2447 290° West 177 204 6,100 52 Climbing Cleveland Center
Fri 10:56:27 PM 41.7678 -82.3092 288° West 187 215 6,100 -50 Level Cleveland Center
Fri 10:57:28 PM 41.7811 -82.3764 285° West 185 213 6,000 -45 Descending Cleveland Center
Fri 10:58:41 PM 41.8031 -82.4522 291° West 188 216 6,000  Level Cleveland Center
Fri 10:59:30 PM 41.8144 -82.5083 285° West 186 214 6,000 58 Level Cleveland Center
Fri 11:00:24 PM 41.8303 -82.5700 289° West 186 214 6,100  Climbing Cleveland Center
Fri 11:01:31 PM 41.8497 -82.6375 291° West 189 217 6,000 -47 Descending Cleveland Center
Fri 11:02:32 PM 41.8972 -82.6642 337° Northwest 172 198 6,000  Level Cleveland Center
Fri 11:03:38 PM 41.9489 -82.6883 341° North 177 204 6,000 50 Level Cleveland Center
Fri 11:04:33 PM 41.9925 -82.7064 343° North 176 203 6,100  Climbing Cleveland Center
Fri 11:05:33 PM 42.0358 -82.7303 338° Northwest 176 203 6,000 -52 Descending Cleveland Center
Fri 11:06:28 PM 42.0769 -82.7511 339° North 177 204 6,000 55 Level Cleveland Center
Fri 11:07:23 PM 42.1183 -82.7750 337° Northwest 176 203 6,100  Climbing Cleveland Center
Fri 11:08:23 PM 42.1658 -82.7964 342° North 176 203 6,000 -50 Descending Cleveland Center
Fri 11:09:24 PM 42.2133 -82.8203 340° North 178 205 6,000  Level Cleveland Center
Fri 11:10:18 PM 42.2544 -82.8414 339° North 178 205 6,000  Level Cleveland Center
Fri 11:11:19 PM 42.2933 -82.8906 317° Northwest 181 208 6,000  Level Cleveland Center
Fri 11:12:20 PM 42.3278 -82.9394 314° West 181 208 6,000  Level Cleveland Center
Fri 11:13:26 PM 42.3683 -82.9889 318° Northwest 180 207 6,000 45 Level Cleveland Center
Fri 11:14:33 PM 42.4131 -83.0411 319° Northwest 178 205 6,100 -281 Climbing Cleveland Center
Fri 11:15:34 PM 42.4494 -83.0961 312° West 197 227 5,400 -767 Descending Cleveland Center
Fri 11:16:46 PM 42.4917 -83.1597 312° West 193 222 4,400 -803 Descending Cleveland Center
Fri 11:17:41 PM 42.5261 -83.2119 312° West 192 221 3,700 -689 Descending Cleveland Center
Fri 11:18:48 PM 42.5664 -83.2700 313° West 195 224 3,000 -606 Descending Cleveland Center
Fri 11:19:30 PM 42.5928 -83.3019 318° Northwest 186 214 2,600 -583 Descending Cleveland Center
Fri 11:20:31 PM 42.6333 -83.3461 321° Northwest 185 213 2,000 -590 Descending Cleveland Center
Fri 11:22:00 PM 42.6500 -83.4167 304° West  Level FlightAware Approximate
Fri 11:29:00 PM 42.6656 -83.4205 304° West  Level Estimated
Fri 11:30:00 PM 42.6656 -83.4205 304° West  Level Estimated
Fri 11:31:00 PM 42.6656 -83.4205 304° West  Level Estimated

Login

Don't have an account? Register now (free) for customized features, flight alerts, and more!